sensor_id;sensor_type;location;lat;lon;timestamp;P1;durP1;ratioP1;P2;durP2;ratioP2
44832;SDS011;30569;51.252;9.830;2023-12-14T00:00:45;17.02;;;9.35;;
44832;SDS011;30569;51.252;9.830;2023-12-14T00:03:11;24.65;;;8.88;;
44832;SDS011;30569;51.252;9.830;2023-12-14T00:05:37;18.30;;;8.95;;
44832;SDS011;30569;51.252;9.830;2023-12-14T00:08:03;19.27;;;8.57;;
44832;SDS011;30569;51.252;9.830;2023-12-14T00:10:29;22.95;;;9.65;;
44832;SDS011;30569;51.252;9.830;2023-12-14T00:12:55;22.00;;;9.57;;
44832;SDS011;30569;51.252;9.830;2023-12-14T00:15:21;22.10;;;9.98;;
44832;SDS011;30569;51.252;9.830;2023-12-14T00:17:46;15.10;;;8.98;;
44832;SDS011;30569;51.252;9.830;2023-12-14T00:20:12;17.80;;;10.60;;
44832;SDS011;30569;51.252;9.830;2023-12-14T00:22:39;15.77;;;8.93;;
44832;SDS011;30569;51.252;9.830;2023-12-14T00:25:05;17.77;;;9.20;;
44832;SDS011;30569;51.252;9.830;2023-12-14T00:27:31;11.75;;;7.07;;
44832;SDS011;30569;51.252;9.830;2023-12-14T00:29:56;11.55;;;6.78;;
44832;SDS011;30569;51.252;9.830;2023-12-14T00:32:22;12.25;;;6.47;;
44832;SDS011;30569;51.252;9.830;2023-12-14T00:34:48;13.32;;;7.40;;
44832;SDS011;30569;51.252;9.830;2023-12-14T00:37:14;13.35;;;7.57;;
44832;SDS011;30569;51.252;9.830;2023-12-14T00:39:39;11.88;;;7.32;;
44832;SDS011;30569;51.252;9.830;2023-12-14T00:42:05;17.50;;;8.45;;
44832;SDS011;30569;51.252;9.830;2023-12-14T00:44:31;14.13;;;8.40;;
44832;SDS011;30569;51.252;9.830;2023-12-14T00:46:56;14.57;;;8.27;;
44832;SDS011;30569;51.252;9.830;2023-12-14T00:49:23;14.82;;;7.30;;
44832;SDS011;30569;51.252;9.830;2023-12-14T00:51:49;14.88;;;7.40;;
44832;SDS011;30569;51.252;9.830;2023-12-14T00:54:14;13.85;;;7.25;;
44832;SDS011;30569;51.252;9.830;2023-12-14T00:56:40;18.25;;;8.80;;
44832;SDS011;30569;51.252;9.830;2023-12-14T00:59:06;16.33;;;8.98;;
44832;SDS011;30569;51.252;9.830;2023-12-14T01:01:32;17.35;;;9.23;;
44832;SDS011;30569;51.252;9.830;2023-12-14T01:03:57;14.18;;;8.48;;
44832;SDS011;30569;51.252;9.830;2023-12-14T01:06:24;16.08;;;8.32;;
44832;SDS011;30569;51.252;9.830;2023-12-14T01:08:50;17.45;;;8.57;;
44832;SDS011;30569;51.252;9.830;2023-12-14T01:11:15;18.92;;;8.70;;
44832;SDS011;30569;51.252;9.830;2023-12-14T01:13:41;14.77;;;8.65;;
44832;SDS011;30569;51.252;9.830;2023-12-14T01:16:07;15.60;;;8.10;;
44832;SDS011;30569;51.252;9.830;2023-12-14T01:18:32;13.63;;;7.57;;
44832;SDS011;30569;51.252;9.830;2023-12-14T01:20:58;17.00;;;9.30;;
44832;SDS011;30569;51.252;9.830;2023-12-14T01:23:24;15.30;;;8.63;;
44832;SDS011;30569;51.252;9.830;2023-12-14T01:25:49;14.52;;;8.18;;
44832;SDS011;30569;51.252;9.830;2023-12-14T01:28:15;12.65;;;7.13;;
44832;SDS011;30569;51.252;9.830;2023-12-14T01:30:41;13.10;;;7.75;;
44832;SDS011;30569;51.252;9.830;2023-12-14T01:33:06;13.63;;;7.85;;
44832;SDS011;30569;51.252;9.830;2023-12-14T01:35:32;15.32;;;7.63;;
44832;SDS011;30569;51.252;9.830;2023-12-14T01:37:58;16.13;;;7.75;;
44832;SDS011;30569;51.252;9.830;2023-12-14T01:40:24;14.80;;;7.78;;
44832;SDS011;30569;51.252;9.830;2023-12-14T01:42:50;14.15;;;7.72;;
44832;SDS011;30569;51.252;9.830;2023-12-14T01:45:15;15.70;;;8.20;;
44832;SDS011;30569;51.252;9.830;2023-12-14T01:47:42;18.20;;;8.77;;
44832;SDS011;30569;51.252;9.830;2023-12-14T01:50:08;19.58;;;9.02;;
44832;SDS011;30569;51.252;9.830;2023-12-14T01:52:34;16.13;;;9.38;;
44832;SDS011;30569;51.252;9.830;2023-12-14T01:54:59;17.50;;;8.48;;
44832;SDS011;30569;51.252;9.830;2023-12-14T01:57:27;18.80;;;9.13;;
44832;SDS011;30569;51.252;9.830;2023-12-14T01:59:53;16.73;;;8.45;;
44832;SDS011;30569;51.252;9.830;2023-12-14T02:02:18;12.98;;;7.55;;
44832;SDS011;30569;51.252;9.830;2023-12-14T02:04:44;13.50;;;8.00;;
44832;SDS011;30569;51.252;9.830;2023-12-14T02:07:10;14.50;;;7.38;;
44832;SDS011;30569;51.252;9.830;2023-12-14T02:09:36;13.75;;;7.32;;
44832;SDS011;30569;51.252;9.830;2023-12-14T02:12:02;13.85;;;6.60;;
44832;SDS011;30569;51.252;9.830;2023-12-14T02:14:27;14.07;;;7.63;;
44832;SDS011;30569;51.252;9.830;2023-12-14T02:16:53;12.18;;;7.00;;
44832;SDS011;30569;51.252;9.830;2023-12-14T02:19:19;12.57;;;7.50;;
44832;SDS011;30569;51.252;9.830;2023-12-14T02:21:44;14.27;;;7.32;;
44832;SDS011;30569;51.252;9.830;2023-12-14T02:24:10;15.00;;;7.78;;
44832;SDS011;30569;51.252;9.830;2023-12-14T02:26:36;13.40;;;7.90;;
44832;SDS011;30569;51.252;9.830;2023-12-14T02:29:01;14.05;;;7.40;;
44832;SDS011;30569;51.252;9.830;2023-12-14T02:31:27;15.50;;;8.55;;
44832;SDS011;30569;51.252;9.830;2023-12-14T02:33:52;20.17;;;9.73;;
44832;SDS011;30569;51.252;9.830;2023-12-14T02:36:18;29.45;;;13.73;;
44832;SDS011;30569;51.252;9.830;2023-12-14T02:38:44;29.77;;;13.80;;
44832;SDS011;30569;51.252;9.830;2023-12-14T02:41:10;22.80;;;11.45;;
44832;SDS011;30569;51.252;9.830;2023-12-14T02:43:35;16.27;;;9.38;;
44832;SDS011;30569;51.252;9.830;2023-12-14T02:46:03;19.25;;;9.27;;
44832;SDS011;30569;51.252;9.830;2023-12-14T02:48:28;25.17;;;9.93;;
44832;SDS011;30569;51.252;9.830;2023-12-14T02:50:54;28.48;;;9.75;;
44832;SDS011;30569;51.252;9.830;2023-12-14T02:53:20;16.90;;;9.27;;
44832;SDS011;30569;51.252;9.830;2023-12-14T02:55:45;26.55;;;9.23;;
44832;SDS011;30569;51.252;9.830;2023-12-14T02:58:11;29.45;;;9.68;;
44832;SDS011;30569;51.252;9.830;2023-12-14T03:00:37;73.88;;;9.68;;
44832;SDS011;30569;51.252;9.830;2023-12-14T03:03:03;53.05;;;9.35;;
44832;SDS011;30569;51.252;9.830;2023-12-14T03:05:28;62.33;;;9.05;;
44832;SDS011;30569;51.252;9.830;2023-12-14T03:07:54;64.25;;;8.52;;
44832;SDS011;30569;51.252;9.830;2023-12-14T03:10:19;65.05;;;9.57;;
44832;SDS011;30569;51.252;9.830;2023-12-14T03:12:45;22.08;;;7.38;;
44832;SDS011;30569;51.252;9.830;2023-12-14T03:15:11;17.33;;;6.65;;
44832;SDS011;30569;51.252;9.830;2023-12-14T03:17:36;17.77;;;7.50;;
44832;SDS011;30569;51.252;9.830;2023-12-14T03:20:02;13.43;;;6.82;;
44832;SDS011;30569;51.252;9.830;2023-12-14T03:22:30;14.02;;;6.82;;
44832;SDS011;30569;51.252;9.830;2023-12-14T03:24:57;12.82;;;6.28;;
44832;SDS011;30569;51.252;9.830;2023-12-14T03:27:23;14.35;;;6.50;;
44832;SDS011;30569;51.252;9.830;2023-12-14T03:29:49;10.60;;;5.22;;
44832;SDS011;30569;51.252;9.830;2023-12-14T03:32:15;13.50;;;6.53;;
44832;SDS011;30569;51.252;9.830;2023-12-14T03:34:41;12.73;;;7.13;;
44832;SDS011;30569;51.252;9.830;2023-12-14T03:37:07;13.63;;;7.32;;
44832;SDS011;30569;51.252;9.830;2023-12-14T03:39:33;12.52;;;6.13;;
44832;SDS011;30569;51.252;9.830;2023-12-14T03:41:59;15.25;;;6.75;;
44832;SDS011;30569;51.252;9.830;2023-12-14T03:44:25;11.50;;;6.00;;
44832;SDS011;30569;51.252;9.830;2023-12-14T03:46:51;10.43;;;5.95;;
44832;SDS011;30569;51.252;9.830;2023-12-14T03:49:19;10.57;;;5.63;;
44832;SDS011;30569;51.252;9.830;2023-12-14T03:51:44;11.25;;;5.68;;
44832;SDS011;30569;51.252;9.830;2023-12-14T03:54:10;10.10;;;5.65;;
44832;SDS011;30569;51.252;9.830;2023-12-14T03:56:35;9.40;;;5.22;;
44832;SDS011;30569;51.252;9.830;2023-12-14T03:59:02;11.35;;;4.82;;
44832;SDS011;30569;51.252;9.830;2023-12-14T04:01:27;9.27;;;4.88;;
44832;SDS011;30569;51.252;9.830;2023-12-14T04:03:53;9.52;;;4.90;;
44832;SDS011;30569;51.252;9.830;2023-12-14T04:06:19;8.02;;;4.57;;
44832;SDS011;30569;51.252;9.830;2023-12-14T04:08:44;8.10;;;4.03;;
44832;SDS011;30569;51.252;9.830;2023-12-14T04:11:10;8.40;;;4.53;;
44832;SDS011;30569;51.252;9.830;2023-12-14T04:13:36;7.25;;;3.92;;
44832;SDS011;30569;51.252;9.830;2023-12-14T04:16:02;7.25;;;3.70;;
44832;SDS011;30569;51.252;9.830;2023-12-14T04:18:28;7.80;;;3.38;;
44832;SDS011;30569;51.252;9.830;2023-12-14T04:20:54;6.65;;;3.50;;
44832;SDS011;30569;51.252;9.830;2023-12-14T04:23:19;7.00;;;3.70;;
44832;SDS011;30569;51.252;9.830;2023-12-14T04:25:45;7.30;;;3.60;;
44832;SDS011;30569;51.252;9.830;2023-12-14T04:28:10;5.93;;;3.13;;
44832;SDS011;30569;51.252;9.830;2023-12-14T04:30:36;5.60;;;3.00;;
44832;SDS011;30569;51.252;9.830;2023-12-14T04:33:02;6.53;;;3.20;;
44832;SDS011;30569;51.252;9.830;2023-12-14T04:35:28;5.50;;;2.83;;
44832;SDS011;30569;51.252;9.830;2023-12-14T04:37:53;5.20;;;2.83;;
44832;SDS011;30569;51.252;9.830;2023-12-14T04:40:19;5.80;;;3.05;;
44832;SDS011;30569;51.252;9.830;2023-12-14T04:42:45;5.13;;;2.85;;
44832;SDS011;30569;51.252;9.830;2023-12-14T04:45:11;6.20;;;3.15;;
44832;SDS011;30569;51.252;9.830;2023-12-14T04:47:37;5.80;;;3.03;;
44832;SDS011;30569;51.252;9.830;2023-12-14T04:50:04;5.10;;;2.95;;
44832;SDS011;30569;51.252;9.830;2023-12-14T04:52:30;5.75;;;3.03;;
44832;SDS011;30569;51.252;9.830;2023-12-14T04:54:55;7.68;;;3.53;;
44832;SDS011;30569;51.252;9.830;2023-12-14T04:57:21;6.03;;;3.15;;
44832;SDS011;30569;51.252;9.830;2023-12-14T04:59:47;5.70;;;3.15;;
44832;SDS011;30569;51.252;9.830;2023-12-14T05:02:13;7.68;;;3.50;;
44832;SDS011;30569;51.252;9.830;2023-12-14T05:04:38;6.38;;;3.70;;
44832;SDS011;30569;51.252;9.830;2023-12-14T05:07:04;9.82;;;4.63;;
44832;SDS011;30569;51.252;9.830;2023-12-14T05:09:30;7.25;;;4.18;;
44832;SDS011;30569;51.252;9.830;2023-12-14T05:11:56;7.20;;;3.95;;
44832;SDS011;30569;51.252;9.830;2023-12-14T05:14:21;6.50;;;4.15;;
44832;SDS011;30569;51.252;9.830;2023-12-14T05:16:48;7.82;;;4.40;;
44832;SDS011;30569;51.252;9.830;2023-12-14T05:19:13;8.73;;;4.70;;
44832;SDS011;30569;51.252;9.830;2023-12-14T05:21:39;8.45;;;4.25;;
44832;SDS011;30569;51.252;9.830;2023-12-14T05:24:04;7.30;;;4.35;;
44832;SDS011;30569;51.252;9.830;2023-12-14T05:26:30;6.93;;;4.20;;
44832;SDS011;30569;51.252;9.830;2023-12-14T05:28:56;8.52;;;5.15;;
44832;SDS011;30569;51.252;9.830;2023-12-14T05:31:21;7.90;;;5.03;;
44832;SDS011;30569;51.252;9.830;2023-12-14T05:33:47;9.25;;;5.45;;
44832;SDS011;30569;51.252;9.830;2023-12-14T05:36:13;10.70;;;5.97;;
44832;SDS011;30569;51.252;9.830;2023-12-14T05:38:39;10.07;;;5.53;;
44832;SDS011;30569;51.252;9.830;2023-12-14T05:41:06;9.73;;;6.30;;
44832;SDS011;30569;51.252;9.830;2023-12-14T05:43:31;13.45;;;5.95;;
44832;SDS011;30569;51.252;9.830;2023-12-14T05:45:58;10.77;;;5.88;;
44832;SDS011;30569;51.252;9.830;2023-12-14T05:48:24;10.68;;;6.40;;
44832;SDS011;30569;51.252;9.830;2023-12-14T05:50:52;13.70;;;6.70;;
44832;SDS011;30569;51.252;9.830;2023-12-14T05:53:18;10.90;;;6.23;;
44832;SDS011;30569;51.252;9.830;2023-12-14T05:55:43;11.53;;;6.53;;
44832;SDS011;30569;51.252;9.830;2023-12-14T05:58:09;11.32;;;6.25;;
44832;SDS011;30569;51.252;9.830;2023-12-14T06:00:35;13.32;;;6.28;;
44832;SDS011;30569;51.252;9.830;2023-12-14T06:03:01;9.83;;;5.80;;
44832;SDS011;30569;51.252;9.830;2023-12-14T06:05:27;11.30;;;6.32;;
44832;SDS011;30569;51.252;9.830;2023-12-14T06:07:52;11.00;;;6.27;;
44832;SDS011;30569;51.252;9.830;2023-12-14T06:10:18;9.18;;;4.68;;
44832;SDS011;30569;51.252;9.830;2023-12-14T06:12:44;9.90;;;5.47;;
44832;SDS011;30569;51.252;9.830;2023-12-14T06:15:10;8.05;;;4.53;;
44832;SDS011;30569;51.252;9.830;2023-12-14T06:17:36;8.80;;;4.80;;
44832;SDS011;30569;51.252;9.830;2023-12-14T06:20:04;11.45;;;4.30;;
44832;SDS011;30569;51.252;9.830;2023-12-14T06:22:33;8.40;;;4.33;;
44832;SDS011;30569;51.252;9.830;2023-12-14T06:24:59;9.13;;;4.20;;
44832;SDS011;30569;51.252;9.830;2023-12-14T06:27:25;6.43;;;3.53;;
44832;SDS011;30569;51.252;9.830;2023-12-14T06:29:51;6.13;;;3.88;;
44832;SDS011;30569;51.252;9.830;2023-12-14T06:32:18;5.95;;;3.40;;
44832;SDS011;30569;51.252;9.830;2023-12-14T06:34:43;5.87;;;3.20;;
44832;SDS011;30569;51.252;9.830;2023-12-14T06:37:09;5.60;;;2.88;;
44832;SDS011;30569;51.252;9.830;2023-12-14T06:39:40;7.17;;;3.47;;
44832;SDS011;30569;51.252;9.830;2023-12-14T06:42:06;4.72;;;2.90;;
44832;SDS011;30569;51.252;9.830;2023-12-14T06:44:32;6.07;;;3.33;;
44832;SDS011;30569;51.252;9.830;2023-12-14T06:46:58;5.80;;;3.30;;
44832;SDS011;30569;51.252;9.830;2023-12-14T06:49:23;6.90;;;3.40;;
44832;SDS011;30569;51.252;9.830;2023-12-14T06:51:49;5.80;;;2.83;;
44832;SDS011;30569;51.252;9.830;2023-12-14T06:54:15;5.27;;;3.10;;
44832;SDS011;30569;51.252;9.830;2023-12-14T06:56:41;5.47;;;3.17;;
44832;SDS011;30569;51.252;9.830;2023-12-14T06:59:06;4.47;;;2.77;;
44832;SDS011;30569;51.252;9.830;2023-12-14T07:01:32;5.93;;;2.83;;
44832;SDS011;30569;51.252;9.830;2023-12-14T07:03:57;5.00;;;3.00;;
44832;SDS011;30569;51.252;9.830;2023-12-14T07:06:23;5.32;;;3.00;;
44832;SDS011;30569;51.252;9.830;2023-12-14T07:08:49;6.70;;;3.10;;
44832;SDS011;30569;51.252;9.830;2023-12-14T07:11:15;5.00;;;2.97;;
44832;SDS011;30569;51.252;9.830;2023-12-14T07:13:40;5.23;;;3.03;;
44832;SDS011;30569;51.252;9.830;2023-12-14T07:16:07;6.40;;;2.97;;
44832;SDS011;30569;51.252;9.830;2023-12-14T07:18:37;4.50;;;2.60;;
44832;SDS011;30569;51.252;9.830;2023-12-14T07:21:05;5.20;;;3.10;;
44832;SDS011;30569;51.252;9.830;2023-12-14T07:23:31;5.43;;;3.03;;
44832;SDS011;30569;51.252;9.830;2023-12-14T07:25:58;4.30;;;2.67;;
44832;SDS011;30569;51.252;9.830;2023-12-14T07:28:24;4.93;;;2.80;;
44832;SDS011;30569;51.252;9.830;2023-12-14T07:30:50;5.83;;;3.20;;
44832;SDS011;30569;51.252;9.830;2023-12-14T07:33:16;5.33;;;3.10;;
44832;SDS011;30569;51.252;9.830;2023-12-14T07:35:41;5.90;;;3.50;;
44832;SDS011;30569;51.252;9.830;2023-12-14T07:38:08;6.17;;;3.50;;
44832;SDS011;30569;51.252;9.830;2023-12-14T07:40:34;5.57;;;3.53;;
44832;SDS011;30569;51.252;9.830;2023-12-14T07:43:00;6.83;;;3.60;;
44832;SDS011;30569;51.252;9.830;2023-12-14T07:45:25;6.77;;;3.87;;
44832;SDS011;30569;51.252;9.830;2023-12-14T07:47:51;8.00;;;3.80;;
44832;SDS011;30569;51.252;9.830;2023-12-14T07:50:17;6.85;;;3.80;;
44832;SDS011;30569;51.252;9.830;2023-12-14T07:52:42;8.07;;;3.83;;
44832;SDS011;30569;51.252;9.830;2023-12-14T07:55:08;6.00;;;3.55;;
44832;SDS011;30569;51.252;9.830;2023-12-14T07:57:34;6.40;;;3.80;;
44832;SDS011;30569;51.252;9.830;2023-12-14T07:59:59;6.95;;;3.90;;
44832;SDS011;30569;51.252;9.830;2023-12-14T08:02:25;6.35;;;3.70;;
44832;SDS011;30569;51.252;9.830;2023-12-14T08:04:51;7.67;;;4.00;;
44832;SDS011;30569;51.252;9.830;2023-12-14T08:07:17;6.70;;;3.73;;
44832;SDS011;30569;51.252;9.830;2023-12-14T08:09:43;5.97;;;3.83;;
44832;SDS011;30569;51.252;9.830;2023-12-14T08:12:08;7.40;;;3.90;;
44832;SDS011;30569;51.252;9.830;2023-12-14T08:14:34;5.75;;;3.80;;
44832;SDS011;30569;51.252;9.830;2023-12-14T08:17:01;7.13;;;3.78;;
44832;SDS011;30569;51.252;9.830;2023-12-14T08:19:27;6.60;;;3.73;;
44832;SDS011;30569;51.252;9.830;2023-12-14T08:21:52;5.90;;;3.50;;
44832;SDS011;30569;51.252;9.830;2023-12-14T08:24:18;6.37;;;3.80;;
44832;SDS011;30569;51.252;9.830;2023-12-14T08:26:44;6.32;;;3.78;;
44832;SDS011;30569;51.252;9.830;2023-12-14T08:29:09;6.13;;;3.77;;
44832;SDS011;30569;51.252;9.830;2023-12-14T08:31:35;6.63;;;3.97;;
44832;SDS011;30569;51.252;9.830;2023-12-14T08:34:00;6.00;;;3.72;;
44832;SDS011;30569;51.252;9.830;2023-12-14T08:36:26;6.63;;;3.90;;
44832;SDS011;30569;51.252;9.830;2023-12-14T08:38:51;8.60;;;4.40;;
44832;SDS011;30569;51.252;9.830;2023-12-14T08:41:17;8.00;;;5.05;;
44832;SDS011;30569;51.252;9.830;2023-12-14T08:43:43;8.47;;;5.23;;
44832;SDS011;30569;51.252;9.830;2023-12-14T08:46:09;7.70;;;4.47;;
44832;SDS011;30569;51.252;9.830;2023-12-14T08:48:37;9.25;;;5.07;;
44832;SDS011;30569;51.252;9.830;2023-12-14T08:51:03;8.18;;;4.95;;
44832;SDS011;30569;51.252;9.830;2023-12-14T08:53:29;7.53;;;4.70;;
44832;SDS011;30569;51.252;9.830;2023-12-14T08:55:55;8.33;;;4.60;;
44832;SDS011;30569;51.252;9.830;2023-12-14T08:58:21;10.60;;;4.80;;
44832;SDS011;30569;51.252;9.830;2023-12-14T09:00:46;8.97;;;5.97;;
44832;SDS011;30569;51.252;9.830;2023-12-14T09:03:17;8.30;;;4.97;;
44832;SDS011;30569;51.252;9.830;2023-12-14T09:05:43;8.87;;;5.03;;
44832;SDS011;30569;51.252;9.830;2023-12-14T09:08:10;8.88;;;5.07;;
44832;SDS011;30569;51.252;9.830;2023-12-14T09:10:36;8.30;;;4.83;;
44832;SDS011;30569;51.252;9.830;2023-12-14T09:13:02;14.67;;;5.70;;
44832;SDS011;30569;51.252;9.830;2023-12-14T09:15:30;9.27;;;5.10;;
44832;SDS011;30569;51.252;9.830;2023-12-14T09:17:58;9.40;;;5.70;;
44832;SDS011;30569;51.252;9.830;2023-12-14T09:20:24;9.47;;;5.63;;
44832;SDS011;30569;51.252;9.830;2023-12-14T09:22:50;9.50;;;5.37;;
44832;SDS011;30569;51.252;9.830;2023-12-14T09:25:16;8.35;;;5.10;;
44832;SDS011;30569;51.252;9.830;2023-12-14T09:27:42;8.17;;;4.83;;
44832;SDS011;30569;51.252;9.830;2023-12-14T09:30:07;7.77;;;4.70;;
44832;SDS011;30569;51.252;9.830;2023-12-14T09:32:33;9.10;;;4.83;;
44832;SDS011;30569;51.252;9.830;2023-12-14T09:34:59;7.65;;;4.50;;
44832;SDS011;30569;51.252;9.830;2023-12-14T09:37:25;8.40;;;4.50;;
44832;SDS011;30569;51.252;9.830;2023-12-14T09:39:51;7.27;;;4.07;;
44832;SDS011;30569;51.252;9.830;2023-12-14T09:42:18;9.30;;;4.60;;
44832;SDS011;30569;51.252;9.830;2023-12-14T09:44:45;7.80;;;4.33;;
44832;SDS011;30569;51.252;9.830;2023-12-14T09:47:12;8.55;;;4.88;;
44832;SDS011;30569;51.252;9.830;2023-12-14T09:49:38;7.27;;;4.37;;
44832;SDS011;30569;51.252;9.830;2023-12-14T09:52:06;7.50;;;4.80;;
44832;SDS011;30569;51.252;9.830;2023-12-14T09:54:31;7.37;;;3.87;;
44832;SDS011;30569;51.252;9.830;2023-12-14T09:56:57;6.77;;;3.90;;
44832;SDS011;30569;51.252;9.830;2023-12-14T09:59:23;7.77;;;4.47;;
44832;SDS011;30569;51.252;9.830;2023-12-14T10:01:49;6.30;;;3.43;;
44832;SDS011;30569;51.252;9.830;2023-12-14T10:04:15;5.97;;;3.07;;
44832;SDS011;30569;51.252;9.830;2023-12-14T10:06:43;10.43;;;4.60;;
44832;SDS011;30569;51.252;9.830;2023-12-14T10:09:10;5.43;;;3.30;;
44832;SDS011;30569;51.252;9.830;2023-12-14T10:11:42;5.40;;;3.27;;
44832;SDS011;30569;51.252;9.830;2023-12-14T10:14:18;6.43;;;5.07;;
44832;SDS011;30569;51.252;9.830;2023-12-14T10:16:46;6.33;;;3.90;;
44832;SDS011;30569;51.252;9.830;2023-12-14T10:19:12;10.93;;;6.47;;
44832;SDS011;30569;51.252;9.830;2023-12-14T10:21:38;12.43;;;7.63;;
44832;SDS011;30569;51.252;9.830;2023-12-14T10:24:04;12.88;;;6.90;;
44832;SDS011;30569;51.252;9.830;2023-12-14T10:26:31;9.10;;;4.20;;
44832;SDS011;30569;51.252;9.830;2023-12-14T10:28:56;27.43;;;12.53;;
44832;SDS011;30569;51.252;9.830;2023-12-14T10:31:22;4.57;;;2.67;;
44832;SDS011;30569;51.252;9.830;2023-12-14T10:33:51;5.82;;;3.10;;
44832;SDS011;30569;51.252;9.830;2023-12-14T10:36:21;4.90;;;2.97;;
44832;SDS011;30569;51.252;9.830;2023-12-14T10:38:51;4.53;;;2.17;;
44832;SDS011;30569;51.252;9.830;2023-12-14T10:41:18;4.57;;;2.20;;
44832;SDS011;30569;51.252;9.830;2023-12-14T10:43:46;4.57;;;2.30;;
44832;SDS011;30569;51.252;9.830;2023-12-14T10:46:13;4.38;;;2.20;;
44832;SDS011;30569;51.252;9.830;2023-12-14T10:48:39;3.90;;;2.15;;
44832;SDS011;30569;51.252;9.830;2023-12-14T10:51:09;4.73;;;2.50;;
44832;SDS011;30569;51.252;9.830;2023-12-14T10:53:37;3.87;;;2.33;;
44832;SDS011;30569;51.252;9.830;2023-12-14T10:56:07;4.00;;;2.33;;
44832;SDS011;30569;51.252;9.830;2023-12-14T10:58:51;3.85;;;2.22;;
44832;SDS011;30569;51.252;9.830;2023-12-14T11:01:19;4.30;;;2.47;;
44832;SDS011;30569;51.252;9.830;2023-12-14T11:03:46;5.77;;;3.30;;
44832;SDS011;30569;51.252;9.830;2023-12-14T11:06:25;5.50;;;3.15;;
44832;SDS011;30569;51.252;9.830;2023-12-14T11:09:02;6.15;;;3.75;;
44832;SDS011;30569;51.252;9.830;2023-12-14T11:11:43;6.37;;;4.30;;
44832;SDS011;30569;51.252;9.830;2023-12-14T11:14:18;9.60;;;5.38;;
44832;SDS011;30569;51.252;9.830;2023-12-14T11:16:45;8.50;;;5.57;;
44832;SDS011;30569;51.252;9.830;2023-12-14T11:19:23;10.05;;;6.10;;
44832;SDS011;30569;51.252;9.830;2023-12-14T11:24:20;6.78;;;4.38;;
44832;SDS011;30569;51.252;9.830;2023-12-14T11:26:46;8.50;;;5.50;;
44832;SDS011;30569;51.252;9.830;2023-12-14T11:29:14;7.95;;;4.88;;
44832;SDS011;30569;51.252;9.830;2023-12-14T11:31:40;9.60;;;5.65;;
44832;SDS011;30569;51.252;9.830;2023-12-14T11:34:05;8.82;;;5.40;;
44832;SDS011;30569;51.252;9.830;2023-12-14T11:36:32;8.03;;;4.93;;
44832;SDS011;30569;51.252;9.830;2023-12-14T11:38:58;7.10;;;4.82;;
44832;SDS011;30569;51.252;9.830;2023-12-14T11:41:23;8.07;;;4.73;;
44832;SDS011;30569;51.252;9.830;2023-12-14T11:43:50;7.37;;;4.70;;
44832;SDS011;30569;51.252;9.830;2023-12-14T11:46:16;7.93;;;4.97;;
44832;SDS011;30569;51.252;9.830;2023-12-14T11:48:46;7.60;;;4.30;;
44832;SDS011;30569;51.252;9.830;2023-12-14T11:51:13;7.28;;;4.40;;
44832;SDS011;30569;51.252;9.830;2023-12-14T11:53:43;7.93;;;4.53;;
44832;SDS011;30569;51.252;9.830;2023-12-14T11:56:13;6.87;;;4.63;;
44832;SDS011;30569;51.252;9.830;2023-12-14T11:58:43;7.10;;;4.43;;
44832;SDS011;30569;51.252;9.830;2023-12-14T12:01:16;10.95;;;5.00;;
44832;SDS011;30569;51.252;9.830;2023-12-14T12:03:43;8.25;;;4.53;;
44832;SDS011;30569;51.252;9.830;2023-12-14T12:06:23;7.60;;;4.70;;
44832;SDS011;30569;51.252;9.830;2023-12-14T12:08:51;8.33;;;4.90;;
44832;SDS011;30569;51.252;9.830;2023-12-14T12:11:17;7.45;;;4.03;;
44832;SDS011;30569;51.252;9.830;2023-12-14T12:13:44;9.80;;;4.93;;
44832;SDS011;30569;51.252;9.830;2023-12-14T12:16:14;6.20;;;3.90;;
44832;SDS011;30569;51.252;9.830;2023-12-14T12:18:40;6.72;;;4.00;;
44832;SDS011;30569;51.252;9.830;2023-12-14T12:21:06;5.70;;;3.57;;
44832;SDS011;30569;51.252;9.830;2023-12-14T12:23:34;7.90;;;4.47;;
44832;SDS011;30569;51.252;9.830;2023-12-14T12:26:00;8.52;;;3.83;;
44832;SDS011;30569;51.252;9.830;2023-12-14T12:28:26;6.87;;;4.50;;
44832;SDS011;30569;51.252;9.830;2023-12-14T12:30:55;8.63;;;5.10;;
44832;SDS011;30569;51.252;9.830;2023-12-14T12:33:21;6.67;;;4.60;;
44832;SDS011;30569;51.252;9.830;2023-12-14T12:35:46;6.50;;;3.83;;
44832;SDS011;30569;51.252;9.830;2023-12-14T12:38:12;6.10;;;3.97;;
44832;SDS011;30569;51.252;9.830;2023-12-14T12:40:39;5.97;;;3.50;;
44832;SDS011;30569;51.252;9.830;2023-12-14T12:43:05;6.13;;;3.67;;
44832;SDS011;30569;51.252;9.830;2023-12-14T12:45:31;6.27;;;3.80;;
44832;SDS011;30569;51.252;9.830;2023-12-14T12:47:57;7.50;;;4.47;;
44832;SDS011;30569;51.252;9.830;2023-12-14T12:50:23;8.20;;;4.43;;
44832;SDS011;30569;51.252;9.830;2023-12-14T12:52:49;5.40;;;3.40;;
44832;SDS011;30569;51.252;9.830;2023-12-14T12:55:15;7.20;;;4.05;;
44832;SDS011;30569;51.252;9.830;2023-12-14T12:57:41;6.00;;;3.92;;
44832;SDS011;30569;51.252;9.830;2023-12-14T13:00:07;5.75;;;3.70;;
44832;SDS011;30569;51.252;9.830;2023-12-14T13:02:39;6.60;;;3.90;;
44832;SDS011;30569;51.252;9.830;2023-12-14T13:05:06;9.10;;;4.38;;
44832;SDS011;30569;51.252;9.830;2023-12-14T13:07:33;9.70;;;4.72;;
44832;SDS011;30569;51.252;9.830;2023-12-14T13:09:59;6.43;;;4.20;;
44832;SDS011;30569;51.252;9.830;2023-12-14T13:12:24;7.15;;;3.97;;
44832;SDS011;30569;51.252;9.830;2023-12-14T13:14:51;7.60;;;4.13;;
44832;SDS011;30569;51.252;9.830;2023-12-14T13:17:16;6.43;;;3.70;;
44832;SDS011;30569;51.252;9.830;2023-12-14T13:19:43;5.53;;;3.70;;
44832;SDS011;30569;51.252;9.830;2023-12-14T13:22:09;6.47;;;4.07;;
44832;SDS011;30569;51.252;9.830;2023-12-14T13:24:36;7.40;;;4.60;;
44832;SDS011;30569;51.252;9.830;2023-12-14T13:27:02;7.03;;;4.50;;
44832;SDS011;30569;51.252;9.830;2023-12-14T13:29:28;7.03;;;4.57;;
44832;SDS011;30569;51.252;9.830;2023-12-14T13:31:56;7.13;;;4.57;;
44832;SDS011;30569;51.252;9.830;2023-12-14T13:34:21;6.88;;;4.22;;
44832;SDS011;30569;51.252;9.830;2023-12-14T13:36:47;7.70;;;4.00;;
44832;SDS011;30569;51.252;9.830;2023-12-14T13:39:13;8.43;;;4.73;;
44832;SDS011;30569;51.252;9.830;2023-12-14T13:41:39;8.63;;;5.83;;
44832;SDS011;30569;51.252;9.830;2023-12-14T13:44:04;7.72;;;4.65;;
44832;SDS011;30569;51.252;9.830;2023-12-14T13:46:30;8.37;;;4.67;;
44832;SDS011;30569;51.252;9.830;2023-12-14T13:48:56;13.88;;;8.05;;
44832;SDS011;30569;51.252;9.830;2023-12-14T13:51:21;10.73;;;6.40;;
44832;SDS011;30569;51.252;9.830;2023-12-14T13:53:47;9.23;;;6.60;;
44832;SDS011;30569;51.252;9.830;2023-12-14T13:56:13;7.90;;;5.40;;
44832;SDS011;30569;51.252;9.830;2023-12-14T13:58:39;9.33;;;5.80;;
44832;SDS011;30569;51.252;9.830;2023-12-14T14:01:05;9.50;;;5.83;;
44832;SDS011;30569;51.252;9.830;2023-12-14T14:03:34;9.13;;;5.57;;
44832;SDS011;30569;51.252;9.830;2023-12-14T14:06:00;9.13;;;5.50;;
44832;SDS011;30569;51.252;9.830;2023-12-14T14:08:27;9.03;;;6.30;;
44832;SDS011;30569;51.252;9.830;2023-12-14T14:10:53;9.40;;;6.07;;
44832;SDS011;30569;51.252;9.830;2023-12-14T14:13:19;9.55;;;6.25;;
44832;SDS011;30569;51.252;9.830;2023-12-14T14:15:46;8.30;;;5.40;;
44832;SDS011;30569;51.252;9.830;2023-12-14T14:18:12;9.90;;;6.10;;
44832;SDS011;30569;51.252;9.830;2023-12-14T14:20:38;92.13;;;51.73;;
44832;SDS011;30569;51.252;9.830;2023-12-14T14:23:04;12.23;;;8.10;;
44832;SDS011;30569;51.252;9.830;2023-12-14T14:25:30;43.43;;;21.77;;
44832;SDS011;30569;51.252;9.830;2023-12-14T14:27:55;37.63;;;21.07;;
44832;SDS011;30569;51.252;9.830;2023-12-14T14:30:22;27.63;;;16.10;;
44832;SDS011;30569;51.252;9.830;2023-12-14T14:32:48;17.90;;;10.47;;
44832;SDS011;30569;51.252;9.830;2023-12-14T14:35:14;7.50;;;5.35;;
44832;SDS011;30569;51.252;9.830;2023-12-14T14:37:40;15.73;;;9.43;;
44832;SDS011;30569;51.252;9.830;2023-12-14T14:40:10;14.07;;;8.00;;